x

South Hatteras - 225 South Of Cape Hatteras (41002) Wave Buoy

8:50am - Tue 27th Jun 2017 All times are EDT. -4 hours from GMT.

  • Sig Wave height 3.9ft
  • Swell Direction
  • Peak Period 6s
  • Average Period 5s
  • Wind
    13mph, 16mph gusts
  • Sea Temp 80°f
  • 空気 Temp 76°f
  • Sea Pressure 1016.7mb
  • South Hatteras - 225 South Of Cape Hatteras
  • South Hatteras - 225 South Of Cape Hatteras

More Historic Weather Station data

Upgrade to MSW Pro to gain access to the past 30 days of data for over 8000 Wavebouys and Weather Stations around the globe.

Join Pro

Comparision Forecast

View Surf forecast
   
Tue 06/27 8:50am 4ft 6s 5s 13 16 mph 1016.7mb 80f 76f
7:50am 3.5ft 6s 4s 18 22 mph 1016.6mb 80f 76f
6:50am 3.5ft 5s 4s 18 22 mph 1016.5mb 80f 77f
5:50am 3.5ft 6s 4s 20 27 mph 1016mb 80f 76f
4:50am 3.5ft 5s 5s 18 22 mph 1015.6mb 80f 78f
3:50am 3.5ft 6s 5s 11 16 mph 1015.9mb 80f 80f
2:50am 3.5ft 6s 5s 13 16 mph 1015.7mb 80f 80f
1:50am 3ft 6s 5s 13 16 mph 1016.1mb 80f 80f
12:50am 3ft 6s 5s 13 16 mph 1016.7mb 80f 79f
Mon 06/26 11:50pm 3ft 6s 5s 11 13 mph 1017.3mb 80f 80f
10:50pm 3ft 6s 5s 11 11 mph 1017.3mb 80f 79f
9:50pm 2.5ft 5s 5s 9 11 mph 1017.5mb 80f 79f
8:50pm 2.5ft 5s 5s 11 13 mph 1016.8mb 80f 78f
7:50pm 2.5ft 6s 5s 11 13 mph 1016.8mb 80f 78f
6:50pm 3ft 5s 5s 7 9 mph 1017.3mb 80f 78f
5:50pm 3ft 5s 5s 4 4 mph 1017.3mb 80f 78f
4:50pm 3.5ft 5s 5s 7 9 mph 1017.5mb 80f 77f
3:50pm 3.5ft 6s 5s 9 11 mph 1018.5mb 80f 78f
2:50pm 3.5ft 6s 5s 16 18 mph 1018.5mb 81f 78f
1:50pm 3.5ft 6s 5s 18 22 mph 1018.8mb 81f 80f
12:50pm 3.5ft 6s 5s 11 16 mph 1019mb 81f 78f
11:50am 3ft 6s 5s 11 13 mph 1019mb 81f 81f
10:50am 3ft 6s 5s 9 11 mph 1019mb 81f 80f
9:50am 3ft 6s 5s 13 16 mph 1018.7mb 81f 81f
8:50am 3ft 6s 5s 13 16 mph 1018.8mb 80f 80f
7:50am 3ft 5s 5s 13 13 mph 1018.4mb 80f 80f
6:50am 3ft 6s 5s 11 13 mph 1018.8mb 80f 80f
5:50am 3ft 6s 5s 11 13 mph 1018mb 80f 80f
4:50am 3.5ft 6s 5s 11 13 mph 1018.5mb 80f 80f
3:50am 3.5ft 6s 5s 13 16 mph 1018.8mb 80f 80f
2:50am 3.5ft 5s 5s 13 16 mph 1019.2mb 80f 80f
1:50am 3.5ft 5s 5s 13 16 mph 1019.2mb 80f 80f
12:50am 3.5ft 6s 5s 13 16 mph 1019.4mb 80f 80f
Sun 06/25 11:50pm 3.5ft 6s 5s 11 13 mph 1019.7mb 80f 80f
10:50pm 4ft 6s 5s 11 13 mph 1019.9mb 80f 81f
9:50pm 4ft 6s 5s 11 13 mph 1020.2mb 81f 81f
8:50pm 3.5ft 6s 5s 13 16 mph 1020mb 81f 81f
7:50pm 4ft 6s 5s 13 16 mph 1019.7mb 81f 81f
6:50pm 3.5ft 6s 5s 13 16 mph 1019.4mb 81f 81f
5:50pm 4ft 6s 5s 13 16 mph 1019.3mb 81f 81f
4:50pm 4ft 6s 5s 13 16 mph 1019.3mb 81f 81f
3:50pm 4ft 6s 5s 16 18 mph 1019.5mb 81f 81f
2:50pm 3.5ft 5s 5s 16 18 mph 1019.9mb 81f 81f
1:50pm 4.5ft 6s 5s 16 18 mph 1020.4mb 81f 81f
12:50pm 4ft 6s 5s 13 18 mph 1020.9mb 80f 81f
11:50am 4.5ft 6s 5s 16 18 mph 1021.1mb 80f 81f
10:50am 4ft 6s 5s 16 18 mph 1021mb 80f 81f
9:50am 4ft 6s 5s 16 20 mph 1020.6mb 80f 81f
8:50am 4.5ft 5s 5s 13 16 mph 1020.5mb 80f 81f
7:50am 4ft 6s 5s 16 18 mph 1020.4mb 80f 81f
6:50am 4.5ft 6s 5s 13 16 mph 1020.1mb 80f 80f
5:50am 4.5ft 6s 5s 13 18 mph 1019.8mb 80f 80f
4:50am 4.5ft 5s 5s 16 18 mph 1018.9mb 80f 80f
3:50am 4.5ft 5s 5s 16 18 mph 1018.9mb 80f 80f
2:50am 4ft 6s 5s 16 18 mph 1019.2mb 80f 80f
1:50am 4ft 6s 5s 16 18 mph 1019.7mb 80f 81f
12:50am 4.5ft 6s 5s 16 20 mph 1019.7mb 80f 81f
Sat 06/24 11:50pm 4.5ft 5s 5s 13 18 mph 1020.3mb 81f 81f
10:50pm 4.5ft 6s 5s 16 18 mph 1020.5mb 81f 81f
9:50pm 4.5ft 6s 5s 16 18 mph 1020.1mb 81f 81f
8:50pm 4.5ft 6s 5s 16 18 mph 1019.5mb 81f 81f
7:50pm 4.5ft 6s 5s 16 20 mph 1019.1mb 81f 81f
6:50pm 4.5ft 6s 5s 16 20 mph 1018.6mb 81f 81f
5:50pm 4ft 6s 5s 16 20 mph 1018.5mb 81f 81f
4:50pm 4.5ft 5s 5s 16 18 mph 1018.9mb 81f 81f
3:50pm 4ft 5s 5s 16 18 mph 1019.3mb 81f 81f
2:50pm 4ft 8s 5s 16 20 mph 1019.6mb 81f 81f
1:50pm 4.5ft 5s 5s 16 18 mph 1019.8mb 81f 81f
12:50pm 4.5ft 5s 5s 16 18 mph 1019.8mb 80f 81f
11:50am 4.5ft 5s 5s 18 20 mph 1019.7mb 80f 81f
10:50am 4ft 5s 5s 16 18 mph 1019.2mb 80f 81f
9:50am 4ft 5s 5s 16 18 mph 1018.8mb 80f 81f
8:50am 4ft 5s 5s 16 18 mph 1018.6mb 80f 81f
7:50am 4.5ft 5s 5s 16 20 mph 1018.4mb 80f 81f
6:50am 4ft 9s 5s 16 20 mph 1017.8mb 80f 81f
5:50am 4.5ft 5s 5s 16 18 mph 1017.6mb 80f 81f
4:50am 4ft 9s 5s 18 22 mph 1017.2mb 81f 81f
3:50am 4ft 8s 5s 18 22 mph 1017.4mb 81f 81f
2:50am 4.5ft 8s 5s 18 22 mph 1018mb 81f 81f
1:50am 4ft 9s 5s 20 22 mph 1018.4mb 81f 81f
12:50am 4ft 9s 5s 18 22 mph 1018.7mb 81f 81f
Fri 06/23 11:50pm 3.5ft 9s 5s 16 20 mph 1019.1mb 81f 81f
10:50pm 3.5ft 8s 5s 16 18 mph 1019mb 81f 81f
9:50pm 4ft 9s 6s 16 18 mph 1018.6mb 81f 81f
8:50pm 4ft 9s 6s 16 18 mph 1018.3mb 81f 81f
7:50pm 4ft 9s 6s 13 18 mph 1018.4mb 82f 80f
6:50pm 4ft 9s 6s 11 16 mph 1018.1mb 82f 81f
5:50pm 3.5ft 8s 6s 13 16 mph 1018.1mb 82f 81f
4:50pm 4.5ft 9s 6s 13 16 mph 1018.3mb 82f 81f
3:50pm 4ft 8s 6s 13 16 mph 1018.8mb 82f 81f
2:50pm 4ft 9s 6s 13 16 mph 1019.1mb 82f 81f